sensor_id;sensor_type;location;lat;lon;timestamp;P1;durP1;ratioP1;P2;durP2;ratioP2
76196;SDS011;64974;53.144;17.962;2023-03-14T00:02:20;6.38;;;3.30;;
76196;SDS011;64974;53.144;17.962;2023-03-14T00:04:45;7.68;;;3.00;;
76196;SDS011;64974;53.144;17.962;2023-03-14T00:07:11;7.10;;;3.27;;
76196;SDS011;64974;53.144;17.962;2023-03-14T00:09:37;7.57;;;3.08;;
76196;SDS011;64974;53.144;17.962;2023-03-14T00:12:02;8.47;;;3.13;;
76196;SDS011;64974;53.144;17.962;2023-03-14T00:14:28;6.75;;;3.38;;
76196;SDS011;64974;53.144;17.962;2023-03-14T00:16:54;6.60;;;3.17;;
76196;SDS011;64974;53.144;17.962;2023-03-14T00:19:19;7.97;;;3.38;;
76196;SDS011;64974;53.144;17.962;2023-03-14T00:21:45;6.57;;;3.33;;
76196;SDS011;64974;53.144;17.962;2023-03-14T00:24:10;7.03;;;3.30;;
76196;SDS011;64974;53.144;17.962;2023-03-14T00:26:36;6.70;;;3.22;;
76196;SDS011;64974;53.144;17.962;2023-03-14T00:29:01;7.35;;;2.90;;
76196;SDS011;64974;53.144;17.962;2023-03-14T00:31:26;6.30;;;2.78;;
76196;SDS011;64974;53.144;17.962;2023-03-14T00:33:52;5.50;;;2.83;;
76196;SDS011;64974;53.144;17.962;2023-03-14T00:38:45;5.75;;;2.40;;
76196;SDS011;64974;53.144;17.962;2023-03-14T00:41:14;4.88;;;2.63;;
76196;SDS011;64974;53.144;17.962;2023-03-14T00:43:41;7.57;;;3.35;;
76196;SDS011;64974;53.144;17.962;2023-03-14T00:46:06;6.38;;;2.88;;
76196;SDS011;64974;53.144;17.962;2023-03-14T00:48:32;6.07;;;3.22;;
76196;SDS011;64974;53.144;17.962;2023-03-14T00:50:57;7.07;;;2.88;;
76196;SDS011;64974;53.144;17.962;2023-03-14T00:53:23;6.75;;;2.80;;
76196;SDS011;64974;53.144;17.962;2023-03-14T00:55:48;5.72;;;2.67;;
76196;SDS011;64974;53.144;17.962;2023-03-14T00:58:14;7.55;;;3.05;;
76196;SDS011;64974;53.144;17.962;2023-03-14T01:00:41;5.47;;;3.17;;
76196;SDS011;64974;53.144;17.962;2023-03-14T01:03:07;6.20;;;2.50;;
76196;SDS011;64974;53.144;17.962;2023-03-14T01:05:33;5.38;;;2.60;;
76196;SDS011;64974;53.144;17.962;2023-03-14T01:07:58;6.10;;;2.55;;
76196;SDS011;64974;53.144;17.962;2023-03-14T01:10:24;4.93;;;2.42;;
76196;SDS011;64974;53.144;17.962;2023-03-14T01:12:49;6.10;;;2.85;;
76196;SDS011;64974;53.144;17.962;2023-03-14T01:15:15;5.05;;;2.50;;
76196;SDS011;64974;53.144;17.962;2023-03-14T01:17:40;6.78;;;2.40;;
76196;SDS011;64974;53.144;17.962;2023-03-14T01:20:07;4.47;;;2.25;;
76196;SDS011;64974;53.144;17.962;2023-03-14T01:22:34;6.97;;;3.15;;
76196;SDS011;64974;53.144;17.962;2023-03-14T01:25:05;9.63;;;3.45;;
76196;SDS011;64974;53.144;17.962;2023-03-14T01:27:31;5.18;;;2.40;;
76196;SDS011;64974;53.144;17.962;2023-03-14T01:29:57;6.20;;;3.00;;
76196;SDS011;64974;53.144;17.962;2023-03-14T01:34:48;5.57;;;2.50;;
76196;SDS011;64974;53.144;17.962;2023-03-14T01:37:14;6.90;;;2.23;;
76196;SDS011;64974;53.144;17.962;2023-03-14T01:39:39;5.57;;;2.20;;
76196;SDS011;64974;53.144;17.962;2023-03-14T01:42:04;8.77;;;2.93;;
76196;SDS011;64974;53.144;17.962;2023-03-14T01:44:49;6.25;;;3.17;;
76196;SDS011;64974;53.144;17.962;2023-03-14T01:47:15;4.85;;;2.47;;
76196;SDS011;64974;53.144;17.962;2023-03-14T01:49:40;6.43;;;2.60;;
76196;SDS011;64974;53.144;17.962;2023-03-14T01:54:36;5.95;;;2.45;;
76196;SDS011;64974;53.144;17.962;2023-03-14T01:59:38;7.30;;;3.25;;
76196;SDS011;64974;53.144;17.962;2023-03-14T02:02:06;4.32;;;2.22;;
76196;SDS011;64974;53.144;17.962;2023-03-14T02:04:32;8.00;;;3.35;;
76196;SDS011;64974;53.144;17.962;2023-03-14T02:09:53;7.93;;;3.05;;
76196;SDS011;64974;53.144;17.962;2023-03-14T02:12:19;6.05;;;2.47;;
76196;SDS011;64974;53.144;17.962;2023-03-14T02:14:45;3.80;;;1.73;;
76196;SDS011;64974;53.144;17.962;2023-03-14T02:17:13;4.53;;;2.22;;
76196;SDS011;64974;53.144;17.962;2023-03-14T02:22:09;5.75;;;2.30;;
76196;SDS011;64974;53.144;17.962;2023-03-14T02:27:16;4.45;;;2.00;;
76196;SDS011;64974;53.144;17.962;2023-03-14T02:29:53;4.95;;;1.90;;
76196;SDS011;64974;53.144;17.962;2023-03-14T02:32:21;6.05;;;2.30;;
76196;SDS011;64974;53.144;17.962;2023-03-14T02:34:49;4.07;;;1.90;;
76196;SDS011;64974;53.144;17.962;2023-03-14T02:37:18;4.85;;;1.90;;
76196;SDS011;64974;53.144;17.962;2023-03-14T02:39:44;3.85;;;1.92;;
76196;SDS011;64974;53.144;17.962;2023-03-14T02:42:11;4.68;;;2.13;;
76196;SDS011;64974;53.144;17.962;2023-03-14T02:44:47;4.03;;;1.65;;
76196;SDS011;64974;53.144;17.962;2023-03-14T02:47:34;5.18;;;2.05;;
76196;SDS011;64974;53.144;17.962;2023-03-14T02:50:06;4.00;;;1.80;;
76196;SDS011;64974;53.144;17.962;2023-03-14T02:52:42;5.68;;;2.13;;
76196;SDS011;64974;53.144;17.962;2023-03-14T02:55:07;4.25;;;1.75;;
76196;SDS011;64974;53.144;17.962;2023-03-14T02:57:33;6.25;;;2.53;;
76196;SDS011;64974;53.144;17.962;2023-03-14T02:59:59;14.13;;;4.05;;
76196;SDS011;64974;53.144;17.962;2023-03-14T03:04:50;10.73;;;3.67;;
76196;SDS011;64974;53.144;17.962;2023-03-14T03:07:15;7.95;;;2.83;;
76196;SDS011;64974;53.144;17.962;2023-03-14T03:09:41;4.60;;;2.15;;
76196;SDS011;64974;53.144;17.962;2023-03-14T03:12:06;6.30;;;2.40;;
76196;SDS011;64974;53.144;17.962;2023-03-14T03:14:31;4.32;;;1.83;;
76196;SDS011;64974;53.144;17.962;2023-03-14T03:16:57;4.95;;;1.98;;
76196;SDS011;64974;53.144;17.962;2023-03-14T03:19:22;5.65;;;2.55;;
76196;SDS011;64974;53.144;17.962;2023-03-14T03:21:47;4.65;;;1.70;;
76196;SDS011;64974;53.144;17.962;2023-03-14T03:24:13;4.18;;;1.95;;
76196;SDS011;64974;53.144;17.962;2023-03-14T03:26:38;4.00;;;1.55;;
76196;SDS011;64974;53.144;17.962;2023-03-14T03:29:04;4.75;;;1.70;;
76196;SDS011;64974;53.144;17.962;2023-03-14T03:31:29;3.83;;;1.38;;
76196;SDS011;64974;53.144;17.962;2023-03-14T03:33:55;3.13;;;1.27;;
76196;SDS011;64974;53.144;17.962;2023-03-14T03:36:22;3.03;;;1.38;;
76196;SDS011;64974;53.144;17.962;2023-03-14T03:38:48;3.15;;;1.45;;
76196;SDS011;64974;53.144;17.962;2023-03-14T03:41:14;2.80;;;1.30;;
76196;SDS011;64974;53.144;17.962;2023-03-14T03:43:39;2.97;;;1.10;;
76196;SDS011;64974;53.144;17.962;2023-03-14T03:46:05;3.38;;;1.83;;
76196;SDS011;64974;53.144;17.962;2023-03-14T03:48:31;3.35;;;1.48;;
76196;SDS011;64974;53.144;17.962;2023-03-14T03:50:56;4.22;;;1.27;;
76196;SDS011;64974;53.144;17.962;2023-03-14T03:53:22;3.60;;;1.50;;
76196;SDS011;64974;53.144;17.962;2023-03-14T03:55:47;2.95;;;1.13;;
76196;SDS011;64974;53.144;17.962;2023-03-14T03:58:12;4.47;;;1.75;;
76196;SDS011;64974;53.144;17.962;2023-03-14T04:00:39;3.25;;;1.27;;
76196;SDS011;64974;53.144;17.962;2023-03-14T04:03:04;3.03;;;1.50;;
76196;SDS011;64974;53.144;17.962;2023-03-14T04:05:30;3.42;;;1.58;;
76196;SDS011;64974;53.144;17.962;2023-03-14T04:07:55;3.55;;;1.38;;
76196;SDS011;64974;53.144;17.962;2023-03-14T04:10:20;4.77;;;2.13;;
76196;SDS011;64974;53.144;17.962;2023-03-14T04:12:46;4.65;;;1.88;;
76196;SDS011;64974;53.144;17.962;2023-03-14T04:15:11;3.65;;;1.75;;
76196;SDS011;64974;53.144;17.962;2023-03-14T04:17:36;3.33;;;1.50;;
76196;SDS011;64974;53.144;17.962;2023-03-14T04:20:02;2.65;;;1.23;;
76196;SDS011;64974;53.144;17.962;2023-03-14T04:22:28;2.72;;;1.23;;
76196;SDS011;64974;53.144;17.962;2023-03-14T04:24:53;3.55;;;1.40;;
76196;SDS011;64974;53.144;17.962;2023-03-14T04:27:18;3.80;;;1.45;;
76196;SDS011;64974;53.144;17.962;2023-03-14T04:29:44;2.53;;;1.40;;
76196;SDS011;64974;53.144;17.962;2023-03-14T04:32:09;3.08;;;1.60;;
76196;SDS011;64974;53.144;17.962;2023-03-14T04:34:35;3.03;;;1.48;;
76196;SDS011;64974;53.144;17.962;2023-03-14T04:37:00;4.15;;;1.80;;
76196;SDS011;64974;53.144;17.962;2023-03-14T04:39:26;4.33;;;1.80;;
76196;SDS011;64974;53.144;17.962;2023-03-14T04:41:51;3.97;;;1.70;;
76196;SDS011;64974;53.144;17.962;2023-03-14T04:44:17;3.50;;;1.83;;
76196;SDS011;64974;53.144;17.962;2023-03-14T04:46:42;4.60;;;2.25;;
76196;SDS011;64974;53.144;17.962;2023-03-14T04:49:07;5.78;;;2.28;;
76196;SDS011;64974;53.144;17.962;2023-03-14T04:51:33;5.55;;;2.53;;
76196;SDS011;64974;53.144;17.962;2023-03-14T04:53:58;3.08;;;1.85;;
76196;SDS011;64974;53.144;17.962;2023-03-14T04:56:23;7.75;;;3.78;;
76196;SDS011;64974;53.144;17.962;2023-03-14T04:58:49;6.00;;;2.23;;
76196;SDS011;64974;53.144;17.962;2023-03-14T05:01:14;4.90;;;2.22;;
76196;SDS011;64974;53.144;17.962;2023-03-14T05:03:40;5.22;;;2.05;;
76196;SDS011;64974;53.144;17.962;2023-03-14T05:06:05;4.55;;;2.40;;
76196;SDS011;64974;53.144;17.962;2023-03-14T05:08:30;3.88;;;2.00;;
76196;SDS011;64974;53.144;17.962;2023-03-14T05:10:56;4.75;;;2.10;;
76196;SDS011;64974;53.144;17.962;2023-03-14T05:15:47;5.17;;;2.60;;
76196;SDS011;64974;53.144;17.962;2023-03-14T05:18:13;5.57;;;2.20;;
76196;SDS011;64974;53.144;17.962;2023-03-14T05:20:38;5.03;;;2.45;;
76196;SDS011;64974;53.144;17.962;2023-03-14T05:23:04;4.80;;;2.37;;
76196;SDS011;64974;53.144;17.962;2023-03-14T05:25:29;4.43;;;2.43;;
76196;SDS011;64974;53.144;17.962;2023-03-14T05:27:54;7.00;;;2.88;;
76196;SDS011;64974;53.144;17.962;2023-03-14T05:30:20;5.30;;;2.95;;
76196;SDS011;64974;53.144;17.962;2023-03-14T05:32:46;5.80;;;2.97;;
76196;SDS011;64974;53.144;17.962;2023-03-14T05:35:12;7.28;;;2.83;;
76196;SDS011;64974;53.144;17.962;2023-03-14T05:37:37;5.47;;;2.80;;
76196;SDS011;64974;53.144;17.962;2023-03-14T05:40:03;8.82;;;3.30;;
76196;SDS011;64974;53.144;17.962;2023-03-14T05:42:31;5.55;;;3.20;;
76196;SDS011;64974;53.144;17.962;2023-03-14T05:44:56;6.43;;;3.30;;
76196;SDS011;64974;53.144;17.962;2023-03-14T05:47:22;5.80;;;2.75;;
76196;SDS011;64974;53.144;17.962;2023-03-14T05:49:47;5.20;;;2.85;;
76196;SDS011;64974;53.144;17.962;2023-03-14T05:52:13;6.47;;;2.83;;
76196;SDS011;64974;53.144;17.962;2023-03-14T05:54:39;6.65;;;3.05;;
76196;SDS011;64974;53.144;17.962;2023-03-14T05:57:04;8.30;;;3.25;;
76196;SDS011;64974;53.144;17.962;2023-03-14T05:59:29;8.30;;;3.20;;
76196;SDS011;64974;53.144;17.962;2023-03-14T06:01:55;7.25;;;3.47;;
76196;SDS011;64974;53.144;17.962;2023-03-14T06:04:20;7.68;;;2.90;;
76196;SDS011;64974;53.144;17.962;2023-03-14T06:06:45;5.65;;;2.72;;
76196;SDS011;64974;53.144;17.962;2023-03-14T06:09:11;6.82;;;3.47;;
76196;SDS011;64974;53.144;17.962;2023-03-14T06:11:36;7.88;;;3.10;;
76196;SDS011;64974;53.144;17.962;2023-03-14T06:14:01;6.82;;;3.53;;
76196;SDS011;64974;53.144;17.962;2023-03-14T06:16:27;7.88;;;3.70;;
76196;SDS011;64974;53.144;17.962;2023-03-14T06:18:52;9.32;;;3.17;;
76196;SDS011;64974;53.144;17.962;2023-03-14T06:21:17;8.43;;;3.58;;
76196;SDS011;64974;53.144;17.962;2023-03-14T06:23:44;5.18;;;2.72;;
76196;SDS011;64974;53.144;17.962;2023-03-14T06:26:09;6.75;;;3.83;;
76196;SDS011;64974;53.144;17.962;2023-03-14T06:28:36;7.70;;;3.25;;
76196;SDS011;64974;53.144;17.962;2023-03-14T06:31:01;7.20;;;4.18;;
76196;SDS011;64974;53.144;17.962;2023-03-14T06:33:27;7.25;;;3.47;;
76196;SDS011;64974;53.144;17.962;2023-03-14T06:35:52;9.63;;;3.67;;
76196;SDS011;64974;53.144;17.962;2023-03-14T06:38:18;8.45;;;3.97;;
76196;SDS011;64974;53.144;17.962;2023-03-14T06:40:43;7.90;;;3.30;;
76196;SDS011;64974;53.144;17.962;2023-03-14T06:43:08;5.30;;;3.50;;
76196;SDS011;64974;53.144;17.962;2023-03-14T06:45:34;9.18;;;4.05;;
76196;SDS011;64974;53.144;17.962;2023-03-14T06:47:59;9.57;;;3.97;;
76196;SDS011;64974;53.144;17.962;2023-03-14T06:50:24;8.15;;;4.20;;
76196;SDS011;64974;53.144;17.962;2023-03-14T06:52:50;11.43;;;4.75;;
76196;SDS011;64974;53.144;17.962;2023-03-14T06:55:15;7.65;;;4.10;;
76196;SDS011;64974;53.144;17.962;2023-03-14T06:57:41;8.93;;;4.22;;
76196;SDS011;64974;53.144;17.962;2023-03-14T07:00:06;7.43;;;4.20;;
76196;SDS011;64974;53.144;17.962;2023-03-14T07:02:32;8.20;;;4.35;;
76196;SDS011;64974;53.144;17.962;2023-03-14T07:04:58;10.57;;;4.55;;
76196;SDS011;64974;53.144;17.962;2023-03-14T07:07:23;7.77;;;4.10;;
76196;SDS011;64974;53.144;17.962;2023-03-14T07:09:48;7.05;;;4.32;;
76196;SDS011;64974;53.144;17.962;2023-03-14T07:12:13;7.53;;;3.90;;
76196;SDS011;64974;53.144;17.962;2023-03-14T07:14:39;6.30;;;3.13;;
76196;SDS011;64974;53.144;17.962;2023-03-14T07:17:04;6.47;;;3.50;;
76196;SDS011;64974;53.144;17.962;2023-03-14T07:19:29;7.40;;;3.73;;
76196;SDS011;64974;53.144;17.962;2023-03-14T07:21:55;7.07;;;3.47;;
76196;SDS011;64974;53.144;17.962;2023-03-14T07:24:20;7.35;;;3.38;;
76196;SDS011;64974;53.144;17.962;2023-03-14T07:26:45;7.25;;;3.60;;
76196;SDS011;64974;53.144;17.962;2023-03-14T07:29:11;7.30;;;3.78;;
76196;SDS011;64974;53.144;17.962;2023-03-14T07:31:36;7.27;;;3.27;;
76196;SDS011;64974;53.144;17.962;2023-03-14T07:34:01;6.78;;;3.20;;
76196;SDS011;64974;53.144;17.962;2023-03-14T07:36:27;6.28;;;3.47;;
76196;SDS011;64974;53.144;17.962;2023-03-14T07:38:53;6.88;;;3.45;;
76196;SDS011;64974;53.144;17.962;2023-03-14T07:41:18;6.47;;;3.47;;
76196;SDS011;64974;53.144;17.962;2023-03-14T07:43:43;8.55;;;3.00;;
76196;SDS011;64974;53.144;17.962;2023-03-14T07:46:09;5.15;;;2.80;;
76196;SDS011;64974;53.144;17.962;2023-03-14T07:48:34;6.15;;;3.13;;
76196;SDS011;64974;53.144;17.962;2023-03-14T07:51:00;5.80;;;2.95;;
76196;SDS011;64974;53.144;17.962;2023-03-14T07:53:25;6.55;;;3.10;;
76196;SDS011;64974;53.144;17.962;2023-03-14T07:55:51;6.97;;;3.10;;
76196;SDS011;64974;53.144;17.962;2023-03-14T07:58:17;5.28;;;2.90;;
76196;SDS011;64974;53.144;17.962;2023-03-14T08:00:43;8.65;;;3.42;;
76196;SDS011;64974;53.144;17.962;2023-03-14T08:03:08;5.90;;;2.55;;
76196;SDS011;64974;53.144;17.962;2023-03-14T08:05:35;6.20;;;3.38;;
76196;SDS011;64974;53.144;17.962;2023-03-14T08:08:01;5.43;;;2.58;;
76196;SDS011;64974;53.144;17.962;2023-03-14T08:10:26;7.05;;;3.10;;
76196;SDS011;64974;53.144;17.962;2023-03-14T08:12:53;5.63;;;2.80;;
76196;SDS011;64974;53.144;17.962;2023-03-14T08:15:20;5.10;;;2.60;;
76196;SDS011;64974;53.144;17.962;2023-03-14T08:17:46;5.75;;;2.60;;
76196;SDS011;64974;53.144;17.962;2023-03-14T08:20:15;5.60;;;2.85;;
76196;SDS011;64974;53.144;17.962;2023-03-14T08:22:44;5.00;;;2.40;;
76196;SDS011;64974;53.144;17.962;2023-03-14T08:25:09;5.80;;;3.00;;
76196;SDS011;64974;53.144;17.962;2023-03-14T08:27:35;6.43;;;3.25;;
76196;SDS011;64974;53.144;17.962;2023-03-14T08:30:03;6.18;;;3.03;;
76196;SDS011;64974;53.144;17.962;2023-03-14T08:32:29;5.90;;;3.45;;
76196;SDS011;64974;53.144;17.962;2023-03-14T08:34:55;8.43;;;3.45;;
76196;SDS011;64974;53.144;17.962;2023-03-14T08:37:20;6.15;;;3.10;;
76196;SDS011;64974;53.144;17.962;2023-03-14T08:39:46;8.80;;;3.45;;
76196;SDS011;64974;53.144;17.962;2023-03-14T08:42:11;6.03;;;3.40;;
76196;SDS011;64974;53.144;17.962;2023-03-14T08:44:37;6.30;;;3.17;;
76196;SDS011;64974;53.144;17.962;2023-03-14T08:47:02;8.30;;;3.43;;
76196;SDS011;64974;53.144;17.962;2023-03-14T08:49:28;8.18;;;3.60;;
76196;SDS011;64974;53.144;17.962;2023-03-14T08:51:53;6.45;;;2.78;;
76196;SDS011;64974;53.144;17.962;2023-03-14T08:54:18;6.25;;;3.40;;
76196;SDS011;64974;53.144;17.962;2023-03-14T08:56:44;7.30;;;3.22;;
76196;SDS011;64974;53.144;17.962;2023-03-14T08:59:09;5.75;;;2.92;;
76196;SDS011;64974;53.144;17.962;2023-03-14T09:01:35;6.55;;;3.80;;
76196;SDS011;64974;53.144;17.962;2023-03-14T09:04:01;7.70;;;3.70;;
76196;SDS011;64974;53.144;17.962;2023-03-14T09:06:26;6.20;;;3.20;;
76196;SDS011;64974;53.144;17.962;2023-03-14T09:08:51;6.53;;;2.80;;
76196;SDS011;64974;53.144;17.962;2023-03-14T09:11:17;7.43;;;3.55;;
76196;SDS011;64974;53.144;17.962;2023-03-14T09:13:43;5.65;;;2.67;;
76196;SDS011;64974;53.144;17.962;2023-03-14T09:16:09;5.90;;;2.80;;
76196;SDS011;64974;53.144;17.962;2023-03-14T09:18:34;6.38;;;3.40;;
76196;SDS011;64974;53.144;17.962;2023-03-14T09:20:59;4.05;;;2.55;;
76196;SDS011;64974;53.144;17.962;2023-03-14T09:23:25;4.60;;;2.28;;
76196;SDS011;64974;53.144;17.962;2023-03-14T09:25:56;5.87;;;3.03;;
76196;SDS011;64974;53.144;17.962;2023-03-14T09:28:22;5.57;;;3.03;;
76196;SDS011;64974;53.144;17.962;2023-03-14T09:30:48;6.35;;;2.53;;
76196;SDS011;64974;53.144;17.962;2023-03-14T09:33:14;4.80;;;2.72;;
76196;SDS011;64974;53.144;17.962;2023-03-14T09:35:40;5.30;;;2.53;;
76196;SDS011;64974;53.144;17.962;2023-03-14T09:38:05;5.00;;;2.80;;
76196;SDS011;64974;53.144;17.962;2023-03-14T09:40:31;5.78;;;2.33;;
76196;SDS011;64974;53.144;17.962;2023-03-14T09:43:01;5.70;;;2.28;;
76196;SDS011;64974;53.144;17.962;2023-03-14T09:45:34;4.53;;;2.33;;
76196;SDS011;64974;53.144;17.962;2023-03-14T09:48:02;6.38;;;2.55;;
76196;SDS011;64974;53.144;17.962;2023-03-14T09:50:48;4.82;;;2.42;;
76196;SDS011;64974;53.144;17.962;2023-03-14T09:53:19;5.13;;;2.35;;
76196;SDS011;64974;53.144;17.962;2023-03-14T09:55:46;7.63;;;2.30;;
76196;SDS011;64974;53.144;17.962;2023-03-14T09:58:16;6.13;;;1.95;;
76196;SDS011;64974;53.144;17.962;2023-03-14T10:00:43;8.70;;;2.88;;
76196;SDS011;64974;53.144;17.962;2023-03-14T10:05:37;4.63;;;1.92;;
76196;SDS011;64974;53.144;17.962;2023-03-14T10:08:02;5.22;;;2.08;;
76196;SDS011;64974;53.144;17.962;2023-03-14T10:10:28;4.40;;;2.28;;
76196;SDS011;64974;53.144;17.962;2023-03-14T10:13:05;5.13;;;2.05;;
76196;SDS011;64974;53.144;17.962;2023-03-14T10:15:47;5.60;;;2.03;;
76196;SDS011;64974;53.144;17.962;2023-03-14T10:18:15;4.97;;;2.38;;
76196;SDS011;64974;53.144;17.962;2023-03-14T10:20:42;4.38;;;2.10;;
76196;SDS011;64974;53.144;17.962;2023-03-14T10:25:41;4.40;;;2.42;;
76196;SDS011;64974;53.144;17.962;2023-03-14T10:28:28;5.50;;;2.38;;
76196;SDS011;64974;53.144;17.962;2023-03-14T10:30:55;4.75;;;2.00;;
76196;SDS011;64974;53.144;17.962;2023-03-14T10:35:57;8.15;;;2.55;;
76196;SDS011;64974;53.144;17.962;2023-03-14T10:38:25;4.22;;;1.77;;
76196;SDS011;64974;53.144;17.962;2023-03-14T10:40:52;5.72;;;1.95;;
76196;SDS011;64974;53.144;17.962;2023-03-14T10:43:19;3.95;;;1.90;;
76196;SDS011;64974;53.144;17.962;2023-03-14T10:45:56;5.57;;;2.00;;
76196;SDS011;64974;53.144;17.962;2023-03-14T10:48:33;3.60;;;1.58;;
76196;SDS011;64974;53.144;17.962;2023-03-14T10:53:45;6.35;;;2.60;;
76196;SDS011;64974;53.144;17.962;2023-03-14T10:56:12;6.35;;;2.60;;
76196;SDS011;64974;53.144;17.962;2023-03-14T10:58:43;6.13;;;2.30;;
76196;SDS011;64974;53.144;17.962;2023-03-14T11:04:03;12.50;;;6.93;;
76196;SDS011;64974;53.144;17.962;2023-03-14T11:10:11;4.45;;;2.10;;
76196;SDS011;64974;53.144;17.962;2023-03-14T11:13:03;12.68;;;3.80;;
76196;SDS011;64974;53.144;17.962;2023-03-14T11:15:34;6.03;;;2.40;;
76196;SDS011;64974;53.144;17.962;2023-03-14T11:32:14;4.63;;;2.55;;
76196;SDS011;64974;53.144;17.962;2023-03-14T11:34:51;4.72;;;1.90;;
76196;SDS011;64974;53.144;17.962;2023-03-14T11:37:22;6.70;;;2.33;;
76196;SDS011;64974;53.144;17.962;2023-03-14T11:39:53;10.05;;;4.07;;
76196;SDS011;64974;53.144;17.962;2023-03-14T11:42:21;13.13;;;5.80;;
76196;SDS011;64974;53.144;17.962;2023-03-14T11:44:48;5.13;;;2.10;;
76196;SDS011;64974;53.144;17.962;2023-03-14T11:47:21;3.47;;;1.73;;
76196;SDS011;64974;53.144;17.962;2023-03-14T11:50:08;7.50;;;2.20;;
76196;SDS011;64974;53.144;17.962;2023-03-14T11:55:32;5.78;;;2.60;;
76196;SDS011;64974;53.144;17.962;2023-03-14T11:58:03;5.32;;;1.73;;
76196;SDS011;64974;53.144;17.962;2023-03-14T12:00:34;4.97;;;2.03;;
76196;SDS011;64974;53.144;17.962;2023-03-14T12:03:09;4.32;;;1.95;;
76196;SDS011;64974;53.144;17.962;2023-03-14T12:13:34;6.45;;;2.60;;
76196;SDS011;64974;53.144;17.962;2023-03-14T12:16:06;3.88;;;1.77;;
76196;SDS011;64974;53.144;17.962;2023-03-14T12:18:36;5.60;;;2.60;;
76196;SDS011;64974;53.144;17.962;2023-03-14T12:21:04;7.28;;;2.60;;
76196;SDS011;64974;53.144;17.962;2023-03-14T12:23:50;5.43;;;3.15;;
76196;SDS011;64974;53.144;17.962;2023-03-14T12:28:51;8.52;;;3.33;;
76196;SDS011;64974;53.144;17.962;2023-03-14T12:41:48;5.10;;;1.90;;
76196;SDS011;64974;53.144;17.962;2023-03-14T12:44:37;5.15;;;2.65;;
76196;SDS011;64974;53.144;17.962;2023-03-14T12:47:39;6.65;;;3.13;;
76196;SDS011;64974;53.144;17.962;2023-03-14T12:50:07;6.53;;;2.65;;
76196;SDS011;64974;53.144;17.962;2023-03-14T12:55:31;5.57;;;2.25;;
76196;SDS011;64974;53.144;17.962;2023-03-14T12:58:15;4.72;;;2.42;;
76196;SDS011;64974;53.144;17.962;2023-03-14T13:00:46;5.32;;;2.13;;
76196;SDS011;64974;53.144;17.962;2023-03-14T13:03:20;5.63;;;1.92;;
76196;SDS011;64974;53.144;17.962;2023-03-14T13:11:03;6.50;;;2.15;;
76196;SDS011;64974;53.144;17.962;2023-03-14T13:13:30;7.32;;;2.63;;
76196;SDS011;64974;53.144;17.962;2023-03-14T13:15:59;5.07;;;2.05;;
76196;SDS011;64974;53.144;17.962;2023-03-14T13:20:58;5.53;;;2.43;;
76196;SDS011;64974;53.144;17.962;2023-03-14T13:23:30;5.65;;;2.92;;
76196;SDS011;64974;53.144;17.962;2023-03-14T13:25:57;4.68;;;2.53;;
76196;SDS011;64974;53.144;17.962;2023-03-14T13:28:24;6.18;;;2.35;;
76196;SDS011;64974;53.144;17.962;2023-03-14T13:33:20;5.88;;;2.53;;
76196;SDS011;64974;53.144;17.962;2023-03-14T13:35:47;7.20;;;2.60;;
76196;SDS011;64974;53.144;17.962;2023-03-14T13:38:21;7.30;;;2.90;;
76196;SDS011;64974;53.144;17.962;2023-03-14T13:40:49;7.25;;;3.20;;
76196;SDS011;64974;53.144;17.962;2023-03-14T13:48:19;5.45;;;2.10;;
76196;SDS011;64974;53.144;17.962;2023-03-14T13:50:46;7.45;;;2.63;;
76196;SDS011;64974;53.144;17.962;2023-03-14T13:53:15;6.10;;;2.50;;
76196;SDS011;64974;53.144;17.962;2023-03-14T13:55:40;8.38;;;2.83;;
76196;SDS011;64974;53.144;17.962;2023-03-14T13:58:10;5.53;;;2.20;;
76196;SDS011;64974;53.144;17.962;2023-03-14T14:00:43;9.40;;;3.05;;
76196;SDS011;64974;53.144;17.962;2023-03-14T14:03:22;5.22;;;2.30;;
76196;SDS011;64974;53.144;17.962;2023-03-14T14:05:47;9.52;;;2.95;;
76196;SDS011;64974;53.144;17.962;2023-03-14T14:08:13;8.30;;;4.20;;
76196;SDS011;64974;53.144;17.962;2023-03-14T14:10:38;8.50;;;2.83;;
76196;SDS011;64974;53.144;17.962;2023-03-14T14:13:04;8.27;;;3.58;;
76196;SDS011;64974;53.144;17.962;2023-03-14T14:15:40;8.00;;;3.10;;
76196;SDS011;64974;53.144;17.962;2023-03-14T14:18:07;16.48;;;6.25;;
76196;SDS011;64974;53.144;17.962;2023-03-14T14:20:40;20.52;;;5.85;;
76196;SDS011;64974;53.144;17.962;2023-03-14T14:23:15;9.73;;;3.10;;
76196;SDS011;64974;53.144;17.962;2023-03-14T14:25:44;5.70;;;3.10;;
76196;SDS011;64974;53.144;17.962;2023-03-14T14:28:29;6.90;;;3.00;;
76196;SDS011;64974;53.144;17.962;2023-03-14T14:33:41;6.78;;;2.90;;
76196;SDS011;64974;53.144;17.962;2023-03-14T14:36:15;9.07;;;4.38;;
76196;SDS011;64974;53.144;17.962;2023-03-14T14:38:49;9.45;;;3.95;;
76196;SDS011;64974;53.144;17.962;2023-03-14T14:41:15;6.55;;;3.05;;
76196;SDS011;64974;53.144;17.962;2023-03-14T14:43:41;6.63;;;2.35;;
76196;SDS011;64974;53.144;17.962;2023-03-14T14:48:35;8.30;;;2.70;;
76196;SDS011;64974;53.144;17.962;2023-03-14T14:51:03;7.03;;;3.00;;
76196;SDS011;64974;53.144;17.962;2023-03-14T14:53:31;6.60;;;2.22;;
76196;SDS011;64974;53.144;17.962;2023-03-14T14:56:07;6.38;;;2.40;;
76196;SDS011;64974;53.144;17.962;2023-03-14T14:58:43;5.22;;;2.45;;
76196;SDS011;64974;53.144;17.962;2023-03-14T15:01:20;6.10;;;2.45;;
76196;SDS011;64974;53.144;17.962;2023-03-14T15:03:51;5.18;;;2.20;;
76196;SDS011;64974;53.144;17.962;2023-03-14T15:06:18;4.03;;;1.80;;
76196;SDS011;64974;53.144;17.962;2023-03-14T15:08:44;4.88;;;2.10;;
76196;SDS011;64974;53.144;17.962;2023-03-14T15:11:21;5.15;;;2.92;;
76196;SDS011;64974;53.144;17.962;2023-03-14T15:13:48;6.35;;;2.67;;
76196;SDS011;64974;53.144;17.962;2023-03-14T15:16:15;7.22;;;2.25;;
76196;SDS011;64974;53.144;17.962;2023-03-14T15:18:43;7.88;;;2.22;;
76196;SDS011;64974;53.144;17.962;2023-03-14T15:21:09;5.63;;;2.42;;
76196;SDS011;64974;53.144;17.962;2023-03-14T15:23:35;3.63;;;1.52;;
76196;SDS011;64974;53.144;17.962;2023-03-14T15:26:00;6.53;;;2.50;;
76196;SDS011;64974;53.144;17.962;2023-03-14T15:28:27;5.25;;;2.03;;
76196;SDS011;64974;53.144;17.962;2023-03-14T15:30:54;7.20;;;2.47;;
76196;SDS011;64974;53.144;17.962;2023-03-14T15:33:21;5.32;;;2.30;;
76196;SDS011;64974;53.144;17.962;2023-03-14T15:35:47;5.10;;;2.22;;
76196;SDS011;64974;53.144;17.962;2023-03-14T15:38:17;5.60;;;1.80;;
76196;SDS011;64974;53.144;17.962;2023-03-14T15:40:48;8.70;;;2.08;;
76196;SDS011;64974;53.144;17.962;2023-03-14T15:43:14;6.60;;;2.60;;
76196;SDS011;64974;53.144;17.962;2023-03-14T15:45:40;6.60;;;2.75;;
76196;SDS011;64974;53.144;17.962;2023-03-14T15:48:06;5.20;;;2.20;;
76196;SDS011;64974;53.144;17.962;2023-03-14T15:50:33;4.97;;;1.90;;
76196;SDS011;64974;53.144;17.962;2023-03-14T15:52:58;4.70;;;2.60;;
76196;SDS011;64974;53.144;17.962;2023-03-14T15:55:24;6.35;;;2.80;;
76196;SDS011;64974;53.144;17.962;2023-03-14T15:57:49;8.52;;;4.28;;
76196;SDS011;64974;53.144;17.962;2023-03-14T16:00:16;8.27;;;4.32;;
76196;SDS011;64974;53.144;17.962;2023-03-14T16:02:43;14.27;;;6.60;;
76196;SDS011;64974;53.144;17.962;2023-03-14T16:05:10;11.50;;;4.82;;
76196;SDS011;64974;53.144;17.962;2023-03-14T16:07:36;12.35;;;4.82;;
76196;SDS011;64974;53.144;17.962;2023-03-14T16:10:01;9.50;;;4.10;;
76196;SDS011;64974;53.144;17.962;2023-03-14T16:12:28;10.15;;;3.65;;
76196;SDS011;64974;53.144;17.962;2023-03-14T16:14:53;6.95;;;3.05;;
76196;SDS011;64974;53.144;17.962;2023-03-14T16:17:19;9.52;;;3.60;;